Time;durP1;ratioP1;P1;durP2;ratioP2;P2;SDS_P1;SDS_P2;PMS_P1;PMS_P2;Temp;Humidity;BMP_temperature;BMP_pressure;BME280_temperature;BME280_humidity;BME280_pressure;Samples;Min_cycle;Max_cycle;Signal;HPM_P1;HPM_P2
2022/06/17 00:00:18;;;;;;;6.55;1.70;;;;;;;15.08;67.71;101446.78;4990997;28;20041;-75
2022/06/17 00:03:22;;;;;;;4.40;1.48;;;;;;;14.95;68.22;101446.63;4991281;28;20120;-75
2022/06/17 00:06:32;;;;;;;5.47;1.15;;;;;;;14.91;67.92;101431.94;5004749;28;20121;-75
2022/06/17 00:09:36;;;;;;;4.45;1.20;;;;;;;14.94;67.68;101434.41;5011129;28;20136;-75
2022/06/17 00:12:39;;;;;;;5.20;1.27;;;;;;;14.81;68.25;101430.75;5011247;28;20489;-76
2022/06/17 00:15:45;;;;;;;5.95;1.58;;;;;;;14.69;68.43;101441.97;5010547;28;20107;-74
2022/06/17 00:18:49;;;;;;;4.05;1.70;;;;;;;14.64;68.78;101437.81;5009728;28;20556;-74
2022/06/17 00:21:53;;;;;;;3.08;1.40;;;;;;;14.69;68.48;101428.81;5009940;28;20096;-74
2022/06/17 00:24:56;;;;;;;4.60;1.60;;;;;;;14.70;68.36;101439.22;4997665;28;20526;-74
2022/06/17 00:28:00;;;;;;;3.72;1.23;;;;;;;14.64;68.80;101431.66;5010366;28;20041;-74
2022/06/17 00:31:04;;;;;;;3.25;1.73;;;;;;;14.57;69.37;101438.22;4998798;28;20061;-74
2022/06/17 00:34:07;;;;;;;4.00;1.73;;;;;;;14.50;69.32;101428.94;5009321;28;20092;-74
2022/06/17 00:37:14;;;;;;;3.85;1.10;;;;;;;14.58;68.55;101434.63;4997871;28;20471;-74
2022/06/17 00:40:21;;;;;;;6.47;1.38;;;;;;;14.57;68.53;101438.22;4997500;28;20053;-75
2022/06/17 00:43:29;;;;;;;3.10;1.55;;;;;;;14.46;68.68;101443.19;5009680;28;20053;-75
2022/06/17 00:46:48;;;;;;;6.45;1.85;;;;;;;14.42;68.54;101442.47;5008709;28;20045;-75
2022/06/17 00:50:01;;;;;;;3.03;1.60;;;;;;;14.45;69.05;101463.38;4991613;28;20427;-75
2022/06/17 00:53:27;;;;;;;3.25;1.30;;;;;;;14.36;69.60;101458.63;4990775;28;20600;-75
2022/06/17 00:56:33;;;;;;;3.30;1.70;;;;;;;14.18;70.05;101466.53;4989229;28;20526;-75
2022/06/17 00:59:36;;;;;;;3.20;1.48;;;;;;;14.10;70.17;101462.59;4989155;28;20089;-75
2022/06/17 01:02:45;;;;;;;2.60;1.55;;;;;;;14.05;69.80;101467.25;4995108;28;20044;-75
2022/06/17 01:06:04;;;;;;;2.65;1.63;;;;;;;13.97;70.30;101472.91;4996216;28;20072;-75
2022/06/17 01:12:46;;;;;;;4.63;1.52;;;;;;;13.92;70.78;101469.69;4996142;28;20403;-74
2022/06/17 01:15:50;;;;;;;3.05;1.55;;;;;;;14.00;70.87;101466.63;5007847;28;20095;-74
2022/06/17 01:18:56;;;;;;;4.75;1.77;;;;;;;13.89;71.27;101464.56;4976513;28;20045;-74
2022/06/17 01:22:13;;;;;;;3.10;1.23;;;;;;;13.94;70.95;101462.53;4958230;28;20104;-74
2022/06/17 01:25:22;;;;;;;4.18;1.67;;;;;;;13.86;71.47;101465.56;4957476;28;20053;-74
2022/06/17 01:28:26;;;;;;;4.35;1.90;;;;;;;13.88;71.25;101468.09;4957701;28;20536;-74
2022/06/17 01:31:29;;;;;;;4.30;1.88;;;;;;;13.71;71.54;101468.97;4976708;28;20466;-74
2022/06/17 01:34:33;;;;;;;4.90;2.33;;;;;;;13.61;72.03;101468.59;4989880;28;20157;-74
2022/06/17 01:37:36;;;;;;;3.88;1.75;;;;;;;13.64;71.79;101471.06;4990060;28;20123;-74
2022/06/17 01:40:39;;;;;;;2.85;1.83;;;;;;;13.62;72.10;101472.91;4999794;28;20107;-74
2022/06/17 01:43:55;;;;;;;4.57;2.10;;;;;;;13.75;71.51;101478.41;4989163;28;20156;-74
2022/06/17 01:47:03;;;;;;;5.05;1.88;;;;;;;13.57;72.29;101477.56;4976648;28;20581;-74
2022/06/17 01:50:15;;;;;;;3.97;1.77;;;;;;;13.64;72.04;101476.31;4975845;28;20843;-74
2022/06/17 01:53:23;;;;;;;5.78;1.90;;;;;;;13.56;72.29;101489.00;4977239;28;20064;-74
2022/06/17 01:56:30;;;;;;;3.53;2.22;;;;;;;13.41;72.92;101487.13;4969143;28;20046;-74
2022/06/17 01:59:43;;;;;;;3.15;2.08;;;;;;;13.38;73.08;101490.75;4957759;28;20077;-74
2022/06/17 02:02:53;;;;;;;5.82;1.73;;;;;;;13.41;72.69;101489.75;4959210;28;20161;-74
2022/06/17 02:06:12;;;;;;;3.22;1.80;;;;;;;13.32;72.94;101492.81;4996743;28;20049;-74
2022/06/17 02:09:17;;;;;;;4.25;1.80;;;;;;;13.20;73.24;101496.84;4995849;28;20088;-75
2022/06/17 02:12:24;;;;;;;4.72;2.30;;;;;;;13.21;72.96;101496.78;4993455;28;20129;-74
2022/06/17 02:15:35;;;;;;;3.58;2.22;;;;;;;13.21;72.87;101488.06;4958380;28;20487;-74
2022/06/17 02:19:02;;;;;;;6.60;2.00;;;;;;;13.19;73.31;101490.75;4983319;28;20462;-74
2022/06/17 02:22:11;;;;;;;3.25;1.90;;;;;;;13.18;72.99;101488.22;4996389;28;20070;-74
2022/06/17 02:25:19;;;;;;;4.90;2.00;;;;;;;13.33;72.61;101481.38;4996732;28;20051;-74
2022/06/17 02:28:24;;;;;;;4.18;2.58;;;;;;;13.22;73.01;101484.50;5007610;28;20447;-74
2022/06/17 02:31:30;;;;;;;3.80;1.90;;;;;;;13.16;73.49;101480.38;4996089;28;20598;-74
2022/06/17 02:34:35;;;;;;;3.95;1.90;;;;;;;13.34;72.55;101489.19;5008057;28;20492;-74
2022/06/17 02:37:38;;;;;;;3.58;1.90;;;;;;;13.07;73.52;101488.69;5007560;28;20115;-75
2022/06/17 02:40:47;;;;;;;4.80;2.45;;;;;;;12.90;74.09;101504.41;4995416;28;20482;-74
2022/06/17 02:44:20;;;;;;;3.58;2.00;;;;;;;12.96;73.87;101509.38;5006860;28;20104;-74
2022/06/17 02:47:25;;;;;;;;;;;;;;;12.77;74.32;101498.88;5007695;28;20394;-74
2022/06/17 02:50:30;;;;;;;3.90;1.85;;;;;;;12.66;74.53;101491.47;4995765;28;20408;-74
2022/06/17 02:53:36;;;;;;;5.00;1.90;;;;;;;12.65;75.08;101488.94;4996039;28;20215;-74
2022/06/17 02:56:44;;;;;;;3.75;1.58;;;;;;;12.87;73.80;101497.50;4994828;28;20069;-74
2022/06/17 02:59:52;;;;;;;3.80;1.90;;;;;;;12.79;74.43;101499.63;5018163;28;20082;-74
2022/06/17 03:03:03;;;;;;;5.10;2.05;;;;;;;12.73;74.48;101508.66;4995431;28;20056;-74
2022/06/17 03:06:18;;;;;;;3.95;2.15;;;;;;;12.70;74.39;101493.03;5007135;28;20546;-75
2022/06/17 03:09:26;;;;;;;3.83;1.67;;;;;;;12.72;74.67;101496.44;5005835;28;20112;-75
2022/06/17 03:12:29;;;;;;;5.88;2.40;;;;;;;12.82;73.96;101491.63;4980711;28;20575;-75
2022/06/17 03:15:33;;;;;;;3.53;1.80;;;;;;;12.76;73.92;101500.66;4987258;28;20044;-75
2022/06/17 03:18:38;;;;;;;3.95;2.10;;;;;;;12.68;74.15;101489.63;4987565;28;20049;-75
2022/06/17 03:21:41;;;;;;;3.08;1.80;;;;;;;12.65;74.30;101494.16;4975336;28;20084;-75
2022/06/17 03:25:18;;;;;;;4.93;2.28;;;;;;;12.68;74.13;101494.88;4987717;28;20138;-74
2022/06/17 03:28:37;;;;;;;4.07;2.30;;;;;;;12.65;74.44;101497.63;5006700;28;20044;-74
2022/06/17 03:31:47;;;;;;;5.40;2.35;;;;;;;12.43;75.32;101500.38;4995134;28;20044;-74
2022/06/17 03:34:53;;;;;;;3.00;1.80;;;;;;;12.37;75.47;101500.66;4995266;28;20111;-74
2022/06/17 03:38:07;;;;;;;3.05;1.58;;;;;;;12.66;72.82;101501.97;5007137;28;20106;-74
2022/06/17 03:41:20;;;;;;;3.50;1.92;;;;;;;13.00;71.69;101501.25;4978894;28;20072;-75
2022/06/17 03:44:32;;;;;;;3.05;1.63;;;;;;;13.10;70.77;101516.59;4988072;28;20069;-75
2022/06/17 03:47:38;;;;;;;4.03;2.00;;;;;;;12.99;72.14;101519.72;4976904;28;20049;-75
2022/06/17 03:50:47;;;;;;;4.55;2.00;;;;;;;12.58;73.93;101530.34;4976960;28;20518;-75
2022/06/17 03:53:53;;;;;;;4.60;2.15;;;;;;;12.50;74.03;101527.19;4974928;28;20064;-75
2022/06/17 03:56:58;;;;;;;3.53;1.65;;;;;;;12.55;73.97;101535.72;4977959;28;20052;-75
2022/06/17 04:00:03;;;;;;;7.50;2.25;;;;;;;12.36;75.20;101542.69;4994707;28;20105;-75
2022/06/17 04:03:15;;;;;;;4.78;2.15;;;;;;;12.31;75.28;101541.09;5007288;28;20518;-74
2022/06/17 04:06:33;;;;;;;3.58;2.17;;;;;;;12.37;75.69;101544.38;4995018;28;20458;-74
2022/06/17 04:09:41;;;;;;;4.05;1.85;;;;;;;12.46;75.25;101546.59;4994314;28;20411;-74
2022/06/17 04:12:47;;;;;;;3.80;2.05;;;;;;;12.52;75.02;101552.44;4995602;28;20076;-74
2022/06/17 04:16:15;;;;;;;5.57;2.28;;;;;;;12.50;75.17;101548.16;5006449;28;20055;-75
2022/06/17 04:19:24;;;;;;;3.25;1.67;;;;;;;12.68;74.49;101549.97;5005555;28;20088;-75
2022/06/17 04:22:35;;;;;;;5.15;2.60;;;;;;;12.52;75.18;101556.84;5005540;28;20166;-75
2022/06/17 04:25:59;;;;;;;5.07;2.65;;;;;;;12.60;74.94;101567.81;4979373;28;20120;-75
2022/06/17 04:29:07;;;;;;;4.72;2.40;;;;;;;12.56;75.22;101568.88;4979208;28;20049;-74
2022/06/17 04:32:22;;;;;;;6.20;2.75;;;;;;;12.66;74.84;101572.81;4979207;28;20495;-75
2022/06/17 04:35:27;;;;;;;3.83;2.20;;;;;;;12.68;75.20;101578.84;4978945;28;20041;-74
2022/06/17 04:38:45;;;;;;;4.65;3.17;;;;;;;12.70;75.05;101570.88;4990160;28;20089;-74
2022/06/17 04:42:05;;;;;;;4.30;2.38;;;;;;;12.78;74.61;101569.63;4978255;28;20089;-75
2022/06/17 04:45:24;;;;;;;8.63;1.98;;;;;;;12.79;74.24;101571.38;4978797;28;20073;-74
2022/06/17 04:48:29;;;;;;;4.50;1.73;;;;;;;12.79;73.21;101574.00;4979117;28;20105;-75
2022/06/17 04:51:34;;;;;;;4.45;1.85;;;;;;;12.85;72.78;101572.00;4984891;28;20111;-75
2022/06/17 04:54:41;;;;;;;3.00;1.55;;;;;;;12.90;72.95;101567.41;5010576;28;20045;-75
2022/06/17 04:57:56;;;;;;;6.25;1.98;;;;;;;13.22;71.95;101566.75;4998473;28;20519;-75
2022/06/17 05:00:59;;;;;;;4.22;1.80;;;;;;;13.13;72.07;101569.81;4997582;28;20071;-74
2022/06/17 05:04:27;;;;;;;5.45;2.60;;;;;;;12.96;73.16;101577.63;4997515;28;20076;-74
2022/06/17 05:07:46;;;;;;;4.95;1.80;;;;;;;13.01;73.16;101573.84;4996643;28;20137;-75
2022/06/17 05:11:00;;;;;;;3.90;2.00;;;;;;;13.03;73.52;101568.53;5021186;28;20048;-75
2022/06/17 05:14:20;;;;;;;5.68;2.00;;;;;;;13.30;72.79;101565.56;4997741;28;20055;-75
2022/06/17 05:17:24;;;;;;;3.72;1.90;;;;;;;13.29;73.10;101569.97;4996520;28;20480;-74
2022/06/17 05:20:28;;;;;;;3.10;1.77;;;;;;;13.30;73.43;101565.56;4996570;28;20107;-75
2022/06/17 05:23:32;;;;;;;2.97;1.80;;;;;;;13.52;72.70;101566.25;4997504;28;20057;-75
2022/06/17 05:26:35;;;;;;;3.95;2.25;;;;;;;13.45;73.06;101575.38;4996470;28;20044;-75
2022/06/17 05:29:39;;;;;;;6.63;2.00;;;;;;;13.59;73.03;101575.56;4996669;28;20045;-75
2022/06/17 05:32:49;;;;;;;5.25;1.90;;;;;;;13.52;73.67;101574.13;4976092;28;20534;-75
2022/06/17 05:35:54;;;;;;;6.40;2.65;;;;;;;13.64;73.19;101581.44;4995441;28;20049;-75
2022/06/17 05:38:58;;;;;;;5.07;1.60;;;;;;;13.75;72.96;101582.69;4996961;28;20111;-76
2022/06/17 05:42:05;;;;;;;4.43;1.83;;;;;;;13.72;73.15;101579.31;4996827;28;20099;-75
2022/06/17 05:45:13;;;;;;;4.45;1.73;;;;;;;13.70;73.69;101591.66;4997358;28;20128;-74
2022/06/17 05:48:28;;;;;;;4.35;1.95;;;;;;;13.73;73.31;101588.88;4994407;28;20050;-75
2022/06/17 05:51:40;;;;;;;3.25;1.95;;;;;;;13.77;73.61;101583.47;4996780;28;20422;-75
2022/06/17 05:55:01;;;;;;;2.88;1.77;;;;;;;13.98;73.19;101592.09;4988087;28;20141;-75
2022/06/17 05:58:06;;;;;;;5.30;1.95;;;;;;;14.18;72.67;101598.06;4988634;28;20038;-76
2022/06/17 06:01:11;;;;;;;4.85;1.90;;;;;;;14.57;71.26;101599.59;4986911;28;20044;-75
2022/06/17 06:04:14;;;;;;;6.25;2.17;;;;;;;14.80;70.53;101601.03;4991929;28;20072;-76
2022/06/17 06:07:18;;;;;;;3.53;1.88;;;;;;;14.99;70.39;101600.91;4995015;28;20184;-76
2022/06/17 06:10:23;;;;;;;6.03;1.95;;;;;;;15.04;69.53;101582.25;5007902;28;20040;-76
2022/06/17 06:13:26;;;;;;;4.40;2.00;;;;;;;15.21;69.80;101583.94;5008265;28;20057;-76
2022/06/17 06:16:31;;;;;;;4.90;1.67;;;;;;;15.30;69.05;101583.44;5007843;28;20049;-76
2022/06/17 06:19:36;;;;;;;2.60;1.50;;;;;;;15.52;68.46;101591.84;4955047;28;1123077;-76
2022/06/17 06:22:40;;;;;;;4.43;1.90;;;;;;;15.63;68.81;101591.22;4988340;28;20063;-76
2022/06/17 06:25:43;;;;;;;3.65;1.70;;;;;;;15.60;68.00;101591.41;4994339;28;20445;-76
2022/06/17 06:28:47;;;;;;;3.92;1.92;;;;;;;15.54;68.75;101592.63;5015259;28;20063;-76
2022/06/17 06:32:10;;;;;;;;;;;;;;;15.66;67.84;101587.59;5006191;28;20045;-76
2022/06/17 06:35:34;;;;;;;4.00;1.70;;;;;;;15.78;66.52;101584.28;4976707;28;19933;-75
2022/06/17 06:38:39;;;;;;;5.43;1.58;;;;;;;16.06;66.26;101572.16;4976657;28;20049;-75
2022/06/17 06:41:43;;;;;;;4.43;1.80;;;;;;;16.19;65.04;101552.00;4991848;28;20458;-76
2022/06/17 06:44:47;;;;;;;9.70;2.05;;;;;;;16.28;64.30;101562.03;5008283;28;20386;-75
2022/06/17 06:47:59;;;;;;;4.05;1.58;;;;;;;16.32;64.10;101552.97;4987772;28;20077;-75
2022/06/17 06:51:04;;;;;;;2.28;1.33;;;;;;;16.47;63.31;101554.69;4976957;28;20105;-75
2022/06/17 06:54:07;;;;;;;5.47;1.77;;;;;;;16.40;63.43;101548.09;4995107;28;20081;-75
2022/06/17 06:57:11;;;;;;;2.95;1.40;;;;;;;16.59;62.91;101539.91;4984501;28;20316;-76
2022/06/17 07:00:28;;;;;;;4.78;1.50;;;;;;;16.77;61.88;101537.94;4987648;28;20515;-76
2022/06/17 07:03:31;;;;;;;6.45;2.35;;;;;;;17.02;61.34;101536.41;4975240;28;20526;-76
2022/06/17 07:06:35;;;;;;;6.68;1.73;;;;;;;17.22;60.55;101530.69;4975627;28;20431;-76
2022/06/17 07:09:38;;;;;;;5.53;1.95;;;;;;;17.44;60.92;101528.34;4987224;28;20541;-76
2022/06/17 07:12:42;;;;;;;3.25;1.40;;;;;;;17.75;60.44;101531.63;4988724;28;20049;-77
2022/06/17 07:15:47;;;;;;;7.57;1.50;;;;;;;17.86;59.81;101536.22;4987533;28;20053;-75
2022/06/17 07:18:50;;;;;;;3.30;1.50;;;;;;;18.02;59.65;101528.09;4988239;28;20036;-76
2022/06/17 07:21:54;;;;;;;4.93;1.58;;;;;;;18.14;59.40;101527.28;4988141;28;20493;-77
2022/06/17 07:24:57;;;;;;;4.55;1.50;;;;;;;18.25;59.74;101535.34;4986427;28;20522;-76
2022/06/17 07:28:01;;;;;;;4.10;1.33;;;;;;;18.40;58.80;101532.59;4988706;28;20105;-74
2022/06/17 07:31:05;;;;;;;4.57;1.88;;;;;;;18.48;58.99;101538.22;5007409;28;20119;-75
2022/06/17 07:34:08;;;;;;;7.05;1.70;;;;;;;18.45;59.42;101535.78;5008570;28;20103;-75
2022/06/17 07:40:34;;;;;;;5.80;1.65;;;;;;;18.53;58.74;101525.47;5007209;28;20096;-74
2022/06/17 07:43:38;;;;;;;4.40;1.33;;;;;;;18.55;59.06;101526.22;5002457;28;20049;-72
2022/06/17 07:46:41;;;;;;;6.30;1.90;;;;;;;18.49;58.87;101511.59;5004976;28;20064;-73
2022/06/17 07:49:45;;;;;;;5.22;1.30;;;;;;;18.45;59.65;101507.47;4997059;28;20115;-73
2022/06/17 07:52:48;;;;;;;3.35;1.42;;;;;;;18.49;59.54;101511.59;5005702;28;20127;-71
2022/06/17 07:55:52;;;;;;;7.10;2.85;;;;;;;18.53;59.50;101502.47;5008558;28;20045;-77
2022/06/17 07:58:56;;;;;;;3.17;1.45;;;;;;;18.59;59.69;101501.22;5000502;28;20514;-74
2022/06/17 08:01:59;;;;;;;4.43;1.35;;;;;;;18.65;58.72;101506.06;4993086;28;20072;-77
2022/06/17 08:05:03;;;;;;;10.77;1.60;;;;;;;18.79;58.59;101502.47;4993426;28;20638;-80
2022/06/17 08:08:08;;;;;;;4.25;1.65;;;;;;;18.93;57.68;101498.84;4992251;28;20192;-81
2022/06/17 08:11:12;;;;;;;8.85;1.83;;;;;;;18.99;56.84;101498.41;4993775;28;20523;-82
2022/06/17 08:14:16;;;;;;;7.82;1.65;;;;;;;19.05;56.25;101498.81;5011896;28;20049;-84
2022/06/17 08:17:20;;;;;;;4.95;1.50;;;;;;;19.23;57.11;101504.56;5011965;28;20431;-78
2022/06/17 08:20:29;;;;;;;5.50;1.63;;;;;;;19.43;55.73;101491.63;5012341;28;20132;-77
2022/06/17 08:23:33;;;;;;;6.43;1.85;;;;;;;19.63;55.64;101509.59;5011274;28;20088;-77
2022/06/17 08:26:36;;;;;;;8.55;1.50;;;;;;;19.67;55.22;101515.53;5011439;28;20052;-77
2022/06/17 08:29:39;;;;;;;7.13;1.50;;;;;;;19.63;53.02;101492.81;5010177;28;20057;-81
2022/06/17 08:32:46;;;;;;;5.20;1.15;;;;;;;19.65;54.22;101482.94;5010485;28;20089;-77
2022/06/17 08:35:49;;;;;;;6.00;1.70;;;;;;;19.87;54.02;101484.81;5010400;28;20052;-77
2022/06/17 08:39:09;;;;;;;4.88;1.60;;;;;;;20.18;53.51;101478.84;5010689;28;20044;-75
2022/06/17 08:42:31;;;;;;;5.10;1.60;;;;;;;20.25;52.10;101486.34;4991465;28;20124;-79
2022/06/17 08:46:19;;;;;;;4.15;1.10;;;;;;;20.17;49.13;101477.16;4999725;28;20295;-77
2022/06/17 08:49:35;;;;;;;3.63;0.93;;;;;;;20.33;48.55;101475.97;4998030;28;20125;-78
2022/06/17 08:53:10;;;;;;;5.38;1.35;;;;;;;20.53;49.10;101475.28;4998053;28;20052;-77
2022/06/17 08:57:01;;;;;;;6.18;1.13;;;;;;;20.64;48.94;101471.75;4989930;28;20048;-76
2022/06/17 09:04:35;;;;;;;4.75;1.30;;;;;;;20.78;49.82;101476.81;4999842;28;20510;-77
2022/06/17 09:07:48;;;;;;;7.13;1.38;;;;;;;20.95;49.27;101470.13;5010437;28;20709;-77
2022/06/17 09:11:20;;;;;;;5.05;1.25;;;;;;;20.99;47.52;101474.22;5009198;28;20124;-77
2022/06/17 09:14:47;;;;;;;5.28;1.35;;;;;;;21.05;46.89;101478.22;5006192;28;20076;-77
2022/06/17 09:18:08;;;;;;;5.53;1.35;;;;;;;21.18;47.35;101488.69;5009253;28;20061;-79
2022/06/17 09:21:36;;;;;;;3.85;1.50;;;;;;;21.10;47.35;101482.19;4990083;28;20121;-77
2022/06/17 09:24:44;;;;;;;4.63;1.17;;;;;;;21.34;47.25;101484.63;5006556;28;20545;-77
2022/06/17 09:27:50;;;;;;;2.42;0.90;;;;;;;21.43;43.03;101474.25;5009356;28;20044;-76
2022/06/17 09:38:01;;;;;;;3.22;1.30;;;;;;;21.44;41.07;101467.94;4269361;26;20284;-75
2022/06/17 09:41:19;;;;;;;4.30;0.95;;;;;;;21.40;39.93;101454.06;5002264;28;20049;-75
2022/06/17 09:44:38;;;;;;;2.40;1.00;;;;;;;21.44;42.09;101451.97;4991427;28;20049;-75
2022/06/17 09:47:51;;;;;;;6.53;1.42;;;;;;;21.71;42.46;101444.34;4991323;28;20096;-74
2022/06/17 09:51:19;;;;;;;11.67;1.67;;;;;;;22.16;42.37;101448.56;4989923;28;20532;-74
2022/06/17 09:54:40;;;;;;;6.57;1.20;;;;;;;21.97;41.77;101443.94;4992308;28;20623;-74
2022/06/17 09:58:06;;;;;;;4.35;1.02;;;;;;;22.03;40.95;101441.59;4990785;28;20053;-75
2022/06/17 10:01:14;;;;;;;2.80;1.05;;;;;;;22.20;41.90;101444.63;4990079;28;20400;-74
2022/06/17 10:04:25;;;;;;;8.80;1.35;;;;;;;22.24;42.25;101448.75;4990959;28;20105;-74
2022/06/17 10:11:45;;;;;;;4.97;1.30;;;;;;;22.41;41.27;101447.25;4990776;28;20409;-75
2022/06/17 10:15:34;;;;;;;6.13;1.10;;;;;;;22.39;40.95;101444.72;4979045;28;20065;-75
2022/06/17 10:19:10;;;;;;;4.82;1.33;;;;;;;22.33;40.21;101439.94;4872726;29;20495;-74
2022/06/17 10:22:30;;;;;;;3.45;1.60;;;;;;;22.39;42.62;101427.91;4900639;28;20455;-72
2022/06/17 10:26:05;;;;;;;2.70;1.10;;;;;;;22.44;41.99;101426.50;4989852;28;20137;-73
2022/06/17 10:29:45;;;;;;;6.35;1.48;;;;;;;22.68;42.69;101404.81;4989269;28;20410;-73
2022/06/17 10:32:55;;;;;;;8.15;1.55;;;;;;;22.56;44.09;101405.94;4970886;28;20422;-76
2022/06/17 10:36:08;;;;;;;;;;;;;;;23.00;43.33;101406.44;4972708;28;20575;-77
2022/06/17 10:39:32;;;;;;;8.05;2.20;;;;;;;23.26;42.05;101409.41;5010839;28;19944;-81
2022/06/17 10:42:40;;;;;;;6.00;1.10;;;;;;;23.26;40.30;101405.88;5013746;28;20048;-81
2022/06/17 10:45:47;;;;;;;5.25;1.65;;;;;;;23.15;42.23;101398.88;5027889;28;20048;-77
2022/06/17 10:49:07;;;;;;;4.72;1.02;;;;;;;23.21;39.71;101406.31;5027917;28;20049;-76
2022/06/17 10:52:25;;;;;;;3.83;1.15;;;;;;;23.33;39.10;101402.50;5024852;28;20052;-76
2022/06/17 11:00:26;;;;;;;2.92;1.10;;;;;;;23.69;38.78;101392.09;5026840;28;20102;-76
2022/06/17 11:03:38;;;;;;;6.22;0.90;;;;;;;23.74;39.15;101388.97;5025921;28;20047;-76
2022/06/17 11:07:17;;;;;;;5.18;0.93;;;;;;;23.61;39.89;101386.56;5021698;28;20115;-76
2022/06/17 11:10:30;;;;;;;4.40;0.90;;;;;;;23.50;41.24;101376.91;5025508;28;20048;-76
2022/06/17 11:13:44;;;;;;;3.55;1.05;;;;;;;23.46;39.76;101377.34;5025408;28;20044;-76
2022/06/17 11:16:55;;;;;;;4.47;1.00;;;;;;;23.46;39.31;101374.69;5025971;28;20089;-76
2022/06/17 11:20:19;;;;;;;5.60;1.27;;;;;;;23.69;41.09;101377.91;5026786;28;20272;-75
2022/06/17 11:23:44;;;;;;;6.80;1.10;;;;;;;24.00;39.80;101367.81;5027485;28;20199;-75
2022/06/17 11:27:07;;;;;;;6.95;1.10;;;;;;;24.17;40.35;101366.19;5006546;28;20115;-75
2022/06/17 11:30:24;;;;;;;3.88;1.00;;;;;;;24.19;38.86;101367.72;5009250;28;20045;-75
2022/06/17 11:33:40;;;;;;;6.30;1.10;;;;;;;24.28;37.21;101350.81;5010310;28;20092;-75
2022/06/17 11:37:10;;;;;;;3.08;1.25;;;;;;;24.65;36.50;101352.53;5010501;28;20117;-75
2022/06/17 11:40:27;;;;;;;3.15;0.98;;;;;;;24.48;37.28;101346.19;5010881;28;20081;-75
2022/06/17 11:43:47;;;;;;;7.15;1.30;;;;;;;24.46;36.85;101340.16;5024498;28;20572;-74
2022/06/17 11:47:03;;;;;;;2.42;1.00;;;;;;;24.62;37.89;101336.81;5032981;28;20060;-74
2022/06/17 11:50:18;;;;;;;2.47;1.00;;;;;;;25.06;36.04;101339.53;5031249;28;20076;-74
2022/06/17 11:53:27;;;;;;;5.60;0.80;;;;;;;25.09;35.45;101327.69;5030233;28;20036;-75
2022/06/17 11:56:40;;;;;;;6.82;1.23;;;;;;;25.03;35.90;101334.50;5026492;28;20444;-75
2022/06/17 11:59:56;;;;;;;3.80;1.00;;;;;;;24.82;38.33;101324.97;5020764;28;20084;-75
2022/06/17 12:03:03;;;;;;;3.30;1.05;;;;;;;24.79;36.91;101314.59;5021159;28;20052;-72
2022/06/17 12:06:27;;;;;;;3.50;0.95;;;;;;;25.08;37.43;101308.13;5020590;28;20582;-75
2022/06/17 12:09:41;;;;;;;5.97;1.30;;;;;;;25.43;36.66;101303.69;5018459;28;20396;-75
2022/06/17 12:12:55;;;;;;;3.95;1.08;;;;;;;25.53;34.27;101304.44;5019516;28;20068;-75
2022/06/17 12:16:25;;;;;;;4.53;0.95;;;;;;;25.71;34.67;101307.84;5024527;28;20044;-74
2022/06/17 12:19:37;;;;;;;3.20;1.30;;;;;;;25.68;33.90;101305.50;5022532;28;20175;-75
2022/06/17 12:22:52;;;;;;;4.30;0.82;;;;;;;25.60;34.76;101300.13;5019519;28;20052;-75
2022/06/17 12:26:05;;;;;;;2.00;0.70;;;;;;;25.89;33.83;101293.59;5024527;28;20072;-74
2022/06/17 12:29:55;;;;;;;4.07;1.48;;;;;;;25.91;33.67;101291.56;5020333;28;20100;-74
2022/06/17 12:33:16;;;;;;;4.85;0.90;;;;;;;25.98;32.35;101281.91;5011397;28;20048;-75
2022/06/17 12:36:36;;;;;;;4.05;0.90;;;;;;;26.31;32.85;101274.78;5021223;28;20435;-75
2022/06/17 12:43:48;;;;;;;3.92;0.60;;;;;;;26.72;28.17;101252.56;5020777;28;20133;-75
2022/06/17 12:47:15;;;;;;;2.90;0.80;;;;;;;26.60;27.92;101266.28;5012317;28;20045;-75
2022/06/17 12:54:38;;;;;;;1.80;0.68;;;;;;;27.15;27.61;101250.50;4670552;28;10000788;-74
2022/06/17 12:58:20;;;;;;;4.05;1.77;;;;;;;27.42;27.55;101239.38;5017171;28;20080;-75
2022/06/17 13:01:38;;;;;;;7.03;4.28;;;;;;;27.51;30.51;101235.66;5017306;28;20442;-74
2022/06/17 13:05:09;;;;;;;1.73;0.50;;;;;;;27.63;26.61;101229.88;5019926;28;20044;-76
2022/06/17 13:08:56;;;;;;;2.60;0.70;;;;;;;27.86;25.86;101241.56;5022262;28;20044;-75
2022/06/17 13:12:25;;;;;;;3.78;0.80;;;;;;;27.88;25.77;101231.47;5011709;28;20120;-74
2022/06/17 13:15:39;;;;;;;5.75;0.70;;;;;;;28.33;25.14;101227.13;5007294;28;20041;-74
2022/06/17 13:19:09;;;;;;;4.57;0.90;;;;;;;28.39;25.94;101226.41;4670297;28;9999961;-75
2022/06/17 13:22:17;;;;;;;2.88;0.90;;;;;;;28.33;24.95;101220.91;5020215;28;20523;-75
2022/06/17 13:25:28;;;;;;;5.65;0.52;;;;;;;28.61;24.32;101218.53;5015262;28;20447;-74
2022/06/17 13:29:10;;;;;;;4.63;0.60;;;;;;;29.00;23.07;101209.41;5021962;28;20056;-74
2022/06/17 13:32:25;;;;;;;13.25;2.00;;;;;;;28.57;30.52;101217.25;5020189;28;20324;-72
2022/06/17 13:35:39;;;;;;;3.60;0.70;;;;;;;28.29;24.05;101215.06;5021012;28;20168;-75
2022/06/17 13:39:09;;;;;;;3.50;0.70;;;;;;;28.59;23.24;101207.13;5018435;28;20068;-74
2022/06/17 13:42:18;;;;;;;2.72;0.70;;;;;;;29.25;22.46;101229.69;5019020;28;20048;-75
2022/06/17 13:45:49;;;;;;;4.93;0.52;;;;;;;29.78;21.97;101216.94;5048204;23;20055;-75
2022/06/17 13:49:09;;;;;;;2.83;0.57;;;;;;;29.72;22.07;101212.31;5047751;28;20402;-74
2022/06/17 13:52:45;;;;;;;1.77;0.63;;;;;;;30.55;22.42;101212.78;5035556;28;20549;-76
2022/06/17 13:56:01;;;;;;;4.97;0.70;;;;;;;30.90;21.24;101215.56;5037066;28;20047;-74
2022/06/17 13:59:26;;;;;;;6.25;1.00;;;;;;;30.59;21.73;101206.78;5026220;28;20043;-76
2022/06/17 14:02:51;;;;;;;3.28;0.60;;;;;;;30.44;22.14;101197.09;5028806;28;20068;-75
2022/06/17 14:06:03;;;;;;;4.55;1.10;;;;;;;31.68;20.79;101200.78;5029761;28;20441;-76
2022/06/17 14:09:25;;;;;;;5.57;1.10;;;;;;;31.97;20.40;101196.13;5030506;28;20052;-76
2022/06/17 14:12:43;;;;;;;;;;;;;;;32.73;19.86;101194.94;5031898;28;20102;-76
2022/06/17 14:16:04;;;;;;;4.40;0.70;;;;;;;33.26;19.29;101190.28;5030164;28;19920;-75
2022/06/17 14:19:16;;;;;;;3.00;0.70;;;;;;;35.33;16.87;101176.84;5032200;28;20084;-76
2022/06/17 14:22:37;;;;;;;2.85;0.70;;;;;;;36.67;15.06;101168.34;5029621;28;20560;-76
2022/06/17 14:25:44;;;;;;;;;;;;;;;37.74;14.28;101177.94;5030484;28;20052;-76
2022/06/17 14:28:48;;;;;;;1.77;0.60;;;;;;;37.20;15.04;101174.69;5030620;28;19932;-75
2022/06/17 14:31:55;;;;;;;2.83;0.60;;;;;;;37.79;14.46;101175.31;5031573;28;20548;-75
2022/06/17 14:35:01;;;;;;;2.10;0.70;;;;;;;38.42;14.01;101162.50;5031463;28;20133;-76
2022/06/17 14:38:30;;;;;;;2.83;1.17;;;;;;;37.49;13.97;101163.81;5030054;28;20079;-76
2022/06/17 14:42:01;;;;;;;2.78;0.93;;;;;;;36.09;15.70;101163.69;5028656;28;20095;-76
2022/06/17 14:45:07;;;;;;;2.67;0.70;;;;;;;36.35;15.28;101162.41;5017848;28;20076;-76
2022/06/17 14:48:11;;;;;;;1.95;0.80;;;;;;;36.54;15.54;101158.53;5032413;28;20052;-75
2022/06/17 14:51:42;;;;;;;2.90;1.10;;;;;;;38.43;13.71;101142.28;5031217;28;20048;-75
2022/06/17 14:54:57;;;;;;;2.35;0.80;;;;;;;38.13;14.03;101146.19;5030014;28;20125;-76
2022/06/17 14:58:04;;;;;;;3.78;0.90;;;;;;;37.64;14.80;101156.75;5031029;28;20136;-75
2022/06/17 15:01:18;;;;;;;4.85;0.80;;;;;;;37.93;14.32;101143.09;5030065;28;20126;-75
2022/06/17 15:04:47;;;;;;;3.58;0.55;;;;;;;36.90;15.92;101139.41;5028829;28;20044;-75
2022/06/17 15:07:54;;;;;;;2.35;0.70;;;;;;;36.31;15.68;101136.69;5030745;28;20134;-76
2022/06/17 15:11:15;;;;;;;1.80;0.75;;;;;;;36.90;14.98;101123.06;5027916;28;20156;-75
2022/06/17 15:14:20;;;;;;;2.50;0.88;;;;;;;35.70;16.03;101125.09;5028718;28;20047;-75
2022/06/17 15:17:37;;;;;;;2.08;0.77;;;;;;;36.07;15.28;101106.75;5032185;28;20075;-73
2022/06/17 15:20:46;;;;;;;1.60;0.63;;;;;;;36.71;15.21;101109.59;5031918;28;20044;-74
2022/06/17 15:24:18;;;;;;;2.42;0.82;;;;;;;35.97;16.81;101109.19;5030031;28;20048;-73
2022/06/17 15:27:43;;;;;;;1.25;0.60;;;;;;;35.34;15.98;101107.78;5028992;28;20056;-73
2022/06/17 15:30:47;;;;;;;2.00;0.60;;;;;;;34.45;16.84;101110.03;5029608;28;20037;-73
2022/06/17 15:33:56;;;;;;;2.00;0.70;;;;;;;35.36;16.39;101097.53;5024979;28;20049;-72